Time;durP1;ratioP1;P1;durP2;ratioP2;P2;SDS_P1;SDS_P2;PMS_P1;PMS_P2;Temp;Humidity;BMP_temperature;BMP_pressure;BME280_temperature;BME280_humidity;BME280_pressure;Samples;Min_cycle;Max_cycle;Signal;HPM_P1;HPM_P2
2022/06/26 00:01:13;;;;;;;11.98;9.15;;;538.30;2406.40;;;;;;5081124;28;20058;-78
2022/06/26 00:03:39;;;;;;;16.75;9.70;;;538.20;2406.40;;;;;;5082233;28;20048;-78
2022/06/26 00:06:05;;;;;;;14.95;9.65;;;538.40;2406.40;;;;;;5079189;28;20514;-77
2022/06/26 00:08:31;;;;;;;14.32;10.02;;;538.50;2406.40;;;;;;5078365;28;20530;-77
2022/06/26 00:10:56;;;;;;;17.05;10.98;;;563.20;2432.00;;;;;;5085003;28;20068;-77
2022/06/26 00:13:22;;;;;;;13.40;9.48;;;563.30;2432.00;;;;;;5082166;28;20068;-77
2022/06/26 00:15:48;;;;;;;16.70;10.88;;;538.50;2406.40;;;;;;5083725;28;20032;-77
2022/06/26 00:18:14;;;;;;;17.20;9.95;;;538.40;2406.40;;;;;;5094873;28;20072;-77
2022/06/26 00:20:40;;;;;;;17.63;9.70;;;538.30;2406.40;;;;;;5105968;28;20027;-77
2022/06/26 00:23:06;;;;;;;16.05;11.80;;;538.30;2406.40;;;;;;5093962;28;20127;-78
2022/06/26 00:25:32;;;;;;;15.18;11.25;;;538.20;2406.40;;;;;;5079439;28;20056;-76
2022/06/26 00:27:58;;;;;;;13.75;10.85;;;538.30;2406.40;;;;;;5081258;28;20085;-77
2022/06/26 00:30:24;;;;;;;18.98;12.32;;;538.20;2406.40;;;;;;5082646;28;20020;-78
2022/06/26 00:32:50;;;;;;;17.95;12.82;;;538.20;2406.40;;;;;;5083376;28;20024;-78
2022/06/26 00:35:16;;;;;;;18.70;13.18;;;538.20;2406.40;;;;;;5079660;28;20478;-78
2022/06/26 00:37:41;;;;;;;21.27;14.52;;;538.20;2406.40;;;;;;5081800;28;20024;-77
2022/06/26 00:40:08;;;;;;;17.05;14.43;;;538.10;2406.40;;;;;;5082858;28;20024;-78
2022/06/26 00:42:34;;;;;;;27.08;14.52;;;538.20;2406.40;;;;;;5079075;28;20043;-78
2022/06/26 00:45:00;;;;;;;18.33;15.35;;;538.30;2406.40;;;;;;5082217;28;20040;-77
2022/06/26 00:47:26;;;;;;;23.23;13.88;;;538.30;2406.40;;;;;;5082055;28;20021;-78
2022/06/26 00:49:52;;;;;;;19.92;13.45;;;538.30;2406.40;;;;;;5083811;28;20514;-77
2022/06/26 00:52:19;;;;;;;18.67;13.73;;;538.40;2406.40;;;;;;5080919;28;20069;-78
2022/06/26 00:54:45;;;;;;;17.15;13.88;;;538.40;2406.40;;;;;;5080046;28;20094;-78
2022/06/26 00:57:12;;;;;;;20.42;13.13;;;538.20;2406.40;;;;;;5082830;28;20073;-77
2022/06/26 00:59:38;;;;;;;20.13;13.70;;;538.40;2406.40;;;;;;5079730;28;20382;-77
2022/06/26 01:02:05;;;;;;;19.63;15.05;;;538.30;2406.40;;;;;;5081877;28;20021;-78
2022/06/26 01:04:31;;;;;;;21.42;15.57;;;538.40;2406.40;;;;;;5079171;28;20024;-77
2022/06/26 01:06:57;;;;;;;23.00;16.45;;;538.40;2406.40;;;;;;5080889;28;20455;-79
2022/06/26 01:09:23;;;;;;;20.65;15.30;;;538.40;2406.40;;;;;;5081574;28;20020;-78
2022/06/26 01:11:50;;;;;;;24.38;15.63;;;538.50;2406.40;;;;;;5082252;28;20025;-76
2022/06/26 01:14:16;;;;;;;23.38;16.45;;;538.30;2406.40;;;;;;5080065;28;20039;-78
2022/06/26 01:16:42;;;;;;;21.50;15.55;;;538.20;2406.40;;;;;;5083931;28;20095;-77
2022/06/26 01:19:09;;;;;;;23.58;16.52;;;538.00;2406.40;;;;;;5083953;28;20428;-78
2022/06/26 01:21:36;;;;;;;20.92;14.35;;;538.10;2406.40;;;;;;5082753;28;20028;-78
2022/06/26 01:24:03;;;;;;;23.40;16.10;;;512.80;2380.80;;;;;;5085638;28;20057;-78
2022/06/26 01:26:31;;;;;;;26.13;15.70;;;538.00;2406.40;;;;;;5083983;28;20024;-77
2022/06/26 01:28:57;;;;;;;26.30;16.00;;;538.00;2406.40;;;;;;5082962;28;20024;-77
2022/06/26 01:31:22;;;;;;;20.05;15.75;;;537.90;2406.40;;;;;;5085319;28;20027;-78
2022/06/26 01:33:49;;;;;;;24.85;18.10;;;537.90;2406.40;;;;;;5085511;28;20035;-78
2022/06/26 01:36:16;;;;;;;19.67;15.15;;;537.80;2406.40;;;;;;5083756;28;20133;-77
2022/06/26 01:38:42;;;;;;;26.33;16.17;;;537.80;2406.40;;;;;;5085463;28;20038;-78
2022/06/26 01:41:08;;;;;;;19.20;15.05;;;537.90;2406.40;;;;;;5084270;28;20028;-77
2022/06/26 01:43:36;;;;;;;23.20;14.50;;;537.90;2406.40;;;;;;5085487;28;20507;-78
2022/06/26 01:46:03;;;;;;;20.15;14.45;;;537.80;2406.40;;;;;;5083322;28;20051;-77
2022/06/26 01:48:31;;;;;;;19.80;13.95;;;537.80;2406.40;;;;;;5084069;28;20095;-78
2022/06/26 01:50:58;;;;;;;23.45;13.80;;;537.90;2406.40;;;;;;5085856;28;20099;-78
2022/06/26 01:53:25;;;;;;;20.52;14.27;;;537.90;2406.40;;;;;;5084424;28;20016;-77
2022/06/26 01:55:51;;;;;;;19.13;13.02;;;538.00;2406.40;;;;;;5083956;28;20051;-77
2022/06/26 01:58:17;;;;;;;24.83;14.35;;;538.00;2406.40;;;;;;5083959;28;20430;-77
2022/06/26 02:00:46;;;;;;;21.83;14.93;;;538.00;2406.40;;;;;;5082503;28;20098;-78
2022/06/26 02:03:12;;;;;;;22.35;13.57;;;538.00;2406.40;;;;;;5083628;28;20642;-77
2022/06/26 02:05:38;;;;;;;18.70;14.90;;;537.90;2406.40;;;;;;5085368;28;20024;-78
2022/06/26 02:08:04;;;;;;;25.95;18.15;;;537.90;2406.40;;;;;;5084168;28;20528;-78
2022/06/26 02:16:04;;;;;;;28.05;15.10;;;538.30;2406.40;;;;;;5083432;28;20074;-77
2022/06/26 02:18:31;;;;;;;25.65;15.07;;;538.40;2406.40;;;;;;5083657;28;20022;-78
2022/06/26 02:20:57;;;;;;;19.63;15.18;;;538.50;2406.40;;;;;;5085261;28;20020;-78
2022/06/26 02:23:23;;;;;;;18.40;14.82;;;538.50;2406.40;;;;;;5083425;28;20028;-78
2022/06/26 02:25:49;;;;;;;26.83;15.52;;;563.30;2432.00;;;;;;5084696;28;20021;-79
2022/06/26 02:28:16;;;;;;;18.60;15.57;;;563.20;2432.00;;;;;;5082445;28;20028;-78
2022/06/26 02:30:42;;;;;;;25.23;16.35;;;538.50;2406.40;;;;;;5084889;28;20023;-77
2022/06/26 02:33:08;;;;;;;20.35;16.65;;;538.50;2406.40;;;;;;5083793;28;20065;-77
2022/06/26 02:35:35;;;;;;;28.95;17.48;;;538.40;2406.40;;;;;;5081571;28;20103;-77
2022/06/26 02:38:00;;;;;;;27.85;18.02;;;538.30;2406.40;;;;;;5083087;28;20017;-77
2022/06/26 02:40:29;;;;;;;28.90;18.50;;;538.20;2406.40;;;;;;5082523;28;20393;-77
2022/06/26 02:42:55;;;;;;;24.55;17.65;;;538.30;2406.40;;;;;;5084621;28;20107;-78
2022/06/26 02:45:21;;;;;;;27.20;17.88;;;538.30;2406.40;;;;;;5082435;28;20078;-77
2022/06/26 02:47:47;;;;;;;27.38;17.83;;;538.00;2406.40;;;;;;5082680;28;20031;-78
2022/06/26 02:50:14;;;;;;;30.02;18.42;;;538.10;2406.40;;;;;;5082731;28;20028;-77
2022/06/26 02:52:39;;;;;;;25.83;17.58;;;538.10;2406.40;;;;;;5081225;28;20032;-78
2022/06/26 02:55:06;;;;;;;24.55;18.52;;;538.00;2406.40;;;;;;5083856;28;20024;-78
2022/06/26 02:57:32;;;;;;;27.13;17.05;;;538.00;2406.40;;;;;;5082786;28;20115;-78
2022/06/26 02:59:58;;;;;;;29.08;18.60;;;538.00;2406.40;;;;;;5082395;28;20527;-78
2022/06/26 03:02:24;;;;;;;26.00;18.98;;;538.00;2406.40;;;;;;5082529;28;20051;-77
2022/06/26 03:04:53;;;;;;;31.08;21.17;;;538.00;2406.40;;;;;;5083405;28;20104;-78
2022/06/26 03:07:20;;;;;;;23.63;18.52;;;538.00;2406.40;;;;;;5080845;28;20099;-77
2022/06/26 03:09:46;;;;;;;24.88;18.85;;;537.90;2406.40;;;;;;5083502;28;20034;-77
2022/06/26 03:12:12;;;;;;;23.88;18.13;;;537.90;2406.40;;;;;;5082802;28;20021;-78
2022/06/26 03:14:38;;;;;;;27.13;18.60;;;538.10;2406.40;;;;;;5082331;28;20062;-77
2022/06/26 03:17:04;;;;;;;26.40;17.25;;;537.80;2406.40;;;;;;5082300;28;20036;-78
2022/06/26 03:19:30;;;;;;;24.23;17.58;;;537.60;2406.40;;;;;;5081571;28;20021;-77
2022/06/26 03:21:56;;;;;;;37.58;18.27;;;537.60;2406.40;;;;;;5082498;28;20024;-76
2022/06/26 03:24:22;;;;;;;25.65;16.83;;;512.90;2380.80;;;;;;5082610;28;20439;-78
2022/06/26 03:26:47;;;;;;;21.63;14.93;;;537.60;2406.40;;;;;;5082103;28;20099;-76
2022/06/26 03:29:14;;;;;;;23.90;15.70;;;537.60;2406.40;;;;;;5082915;28;20020;-79
2022/06/26 03:31:40;;;;;;;27.55;15.38;;;537.90;2406.40;;;;;;5083681;28;20017;-78
2022/06/26 03:34:06;;;;;;;21.67;15.20;;;537.80;2406.40;;;;;;5086732;28;20024;-77
2022/06/26 03:36:33;;;;;;;20.15;14.15;;;537.90;2406.40;;;;;;5080266;28;20021;-77
2022/06/26 03:38:59;;;;;;;21.08;15.75;;;538.00;2406.40;;;;;;5087318;28;20020;-78
2022/06/26 03:41:25;;;;;;;20.90;14.60;;;538.10;2406.40;;;;;;5084316;28;20020;-77
2022/06/26 03:43:51;;;;;;;21.55;14.68;;;538.20;2406.40;;;;;;5085703;28;20056;-79
2022/06/26 03:46:17;;;;;;;21.40;14.40;;;538.00;2406.40;;;;;;5108291;28;20023;-77
2022/06/26 03:48:43;;;;;;;19.00;12.88;;;537.80;2406.40;;;;;;5114982;28;20035;-77
2022/06/26 03:51:09;;;;;;;21.23;13.30;;;537.90;2406.40;;;;;;5093455;28;20425;-77
2022/06/26 03:53:35;;;;;;;15.65;12.40;;;537.80;2406.40;;;;;;5091146;28;20032;-77
2022/06/26 03:56:02;;;;;;;21.15;11.95;;;537.80;2406.40;;;;;;5092820;28;20074;-77
2022/06/26 03:58:28;;;;;;;24.73;12.05;;;537.80;2406.40;;;;;;5093100;28;20027;-77
2022/06/26 04:00:54;;;;;;;19.98;11.65;;;537.90;2406.40;;;;;;5091272;28;20035;-79
2022/06/26 04:03:20;;;;;;;18.73;12.23;;;538.00;2406.40;;;;;;5092831;28;20466;-77
2022/06/26 04:05:47;;;;;;;14.98;12.07;;;538.00;2406.40;;;;;;5092375;28;20055;-76
2022/06/26 04:08:13;;;;;;;20.73;13.05;;;538.10;2406.40;;;;;;5092821;28;20095;-78
2022/06/26 04:10:39;;;;;;;18.90;11.52;;;538.10;2406.40;;;;;;5092397;28;20031;-77
2022/06/26 04:13:08;;;;;;;17.92;13.02;;;538.10;2406.40;;;;;;5092637;28;20035;-77
2022/06/26 04:15:35;;;;;;;21.40;11.98;;;538.30;2406.40;;;;;;5091529;28;20064;-77
2022/06/26 04:18:03;;;;;;;20.13;12.15;;;538.40;2406.40;;;;;;5091098;28;20035;-78
2022/06/26 04:20:29;;;;;;;18.67;12.07;;;538.40;2406.40;;;;;;5092540;28;20035;-79
2022/06/26 04:22:59;;;;;;;21.63;12.70;;;538.40;2406.40;;;;;;5091025;28;20032;-78
2022/06/26 04:25:26;;;;;;;20.75;12.25;;;538.40;2406.40;;;;;;5092497;28;20038;-78
2022/06/26 04:27:52;;;;;;;20.08;13.05;;;538.40;2406.40;;;;;;5091219;28;20382;-78
2022/06/26 04:30:18;;;;;;;18.05;11.90;;;538.50;2406.40;;;;;;5092430;28;20020;-78
2022/06/26 04:32:43;;;;;;;20.85;11.93;;;538.50;2406.40;;;;;;5092181;28;20105;-78
2022/06/26 04:35:10;;;;;;;20.00;12.02;;;538.50;2406.40;;;;;;5092040;28;20063;-78
2022/06/26 04:37:37;;;;;;;18.40;11.65;;;538.40;2406.40;;;;;;5091162;28;20496;-78
2022/06/26 04:40:05;;;;;;;17.92;12.43;;;538.40;2406.40;;;;;;5091030;28;20109;-78
2022/06/26 04:42:31;;;;;;;21.65;13.68;;;563.20;2432.00;;;;;;5092320;28;20008;-79
2022/06/26 04:44:56;;;;;;;25.38;14.18;;;538.50;2406.40;;;;;;5091724;28;20176;-78
2022/06/26 04:47:22;;;;;;;23.17;13.10;;;538.50;2406.40;;;;;;5090901;28;20469;-78
2022/06/26 04:49:48;;;;;;;23.27;12.70;;;538.50;2406.40;;;;;;5093066;28;20520;-85
2022/06/26 04:52:15;;;;;;;23.70;13.80;;;538.50;2406.40;;;;;;5096946;28;20056;-84
2022/06/26 04:54:42;;;;;;;19.05;12.95;;;538.50;2406.40;;;;;;5095530;28;20085;-83
2022/06/26 04:57:07;;;;;;;18.52;13.23;;;538.50;2406.40;;;;;;5095815;28;20020;-79
2022/06/26 04:59:33;;;;;;;19.90;13.40;;;538.50;2406.40;;;;;;5095119;28;20020;-80
2022/06/26 05:01:59;;;;;;;19.20;11.95;;;538.50;2406.40;;;;;;5095151;28;20378;-79
2022/06/26 05:04:25;;;;;;;18.95;12.35;;;538.50;2406.40;;;;;;5095142;28;20481;-79
2022/06/26 05:06:50;;;;;;;16.33;11.48;;;563.30;2432.00;;;;;;5095148;28;20047;-88
2022/06/26 05:09:16;;;;;;;17.45;11.68;;;538.50;2406.40;;;;;;5095242;28;20542;-79
2022/06/26 05:11:43;;;;;;;24.67;13.40;;;538.50;2406.40;;;;;;5096283;28;20027;-79
2022/06/26 05:14:10;;;;;;;14.20;10.70;;;563.40;2432.00;;;;;;5095223;28;20047;-84
2022/06/26 05:16:35;;;;;;;20.70;12.32;;;538.50;2406.40;;;;;;5096053;28;20016;-78
2022/06/26 05:19:02;;;;;;;19.73;13.50;;;563.20;2432.00;;;;;;5095271;28;20038;-87
2022/06/26 05:21:28;;;;;;;22.38;11.77;;;563.40;2432.00;;;;;;5091625;28;20159;-78
2022/06/26 05:23:54;;;;;;;17.20;12.15;;;563.40;2432.00;;;;;;5085631;28;20070;-81
2022/06/26 05:26:20;;;;;;;16.90;12.00;;;563.40;2432.00;;;;;;5095070;28;20024;-81
2022/06/26 05:28:46;;;;;;;19.55;11.55;;;563.60;2432.00;;;;;;5096098;28;20016;-85
2022/06/26 05:31:11;;;;;;;17.70;12.57;;;563.70;2432.00;;;;;;5095124;28;20527;-83
2022/06/26 05:33:37;;;;;;;23.58;12.63;;;563.80;2432.00;;;;;;5095726;28;20067;-81
2022/06/26 05:36:03;;;;;;;20.42;12.45;;;563.90;2432.00;;;;;;5095988;28;20028;-80
2022/06/26 05:38:29;;;;;;;15.95;12.00;;;564.00;2432.00;;;;;;5095038;28;20119;-89
2022/06/26 05:40:55;;;;;;;17.13;13.45;;;564.10;2432.00;;;;;;5086064;28;20056;-89
2022/06/26 05:43:21;;;;;;;19.70;12.77;;;588.80;2432.00;;;;;;5089836;28;20470;-80
2022/06/26 05:45:47;;;;;;;20.95;12.75;;;588.80;2432.00;;;;;;5094650;28;20032;-85
2022/06/26 05:48:13;;;;;;;18.25;12.13;;;588.90;2432.00;;;;;;5096493;28;20089;-84
2022/06/26 05:50:39;;;;;;;21.00;13.10;;;589.10;2432.00;;;;;;5095000;28;20367;-80
2022/06/26 05:53:05;;;;;;;16.92;12.32;;;589.10;2432.00;;;;;;5095183;28;20049;-81
2022/06/26 05:55:33;;;;;;;20.58;14.63;;;589.10;2432.00;;;;;;5096290;28;20119;-84
2022/06/26 05:57:59;;;;;;;20.55;12.65;;;589.20;2432.00;;;;;;5094968;28;20020;-83
2022/06/26 06:00:25;;;;;;;18.17;11.25;;;589.30;2432.00;;;;;;5095614;28;20039;-83
2022/06/26 06:02:51;;;;;;;16.23;11.73;;;589.30;2432.00;;;;;;5093832;28;20024;-82
2022/06/26 06:05:17;;;;;;;21.48;12.45;;;589.40;2432.00;;;;;;5093277;28;20039;-81
2022/06/26 06:07:43;;;;;;;18.40;12.68;;;589.50;2432.00;;;;;;5080297;28;20032;-80
2022/06/26 06:10:10;;;;;;;17.80;12.02;;;589.50;2432.00;;;;;;5094218;28;20107;-85
2022/06/26 06:12:35;;;;;;;17.98;12.10;;;589.60;2432.00;;;;;;5095571;28;20059;-85
2022/06/26 06:15:02;;;;;;;20.58;10.55;;;589.70;2432.00;;;;;;5094340;28;20084;-83
2022/06/26 06:17:37;;;;;;;16.90;11.95;;;589.70;2432.00;;;;;;5090738;28;20428;-86
2022/06/26 06:20:13;;;;;;;21.00;12.18;;;614.40;2432.00;;;;;;5083563;28;20780;-86
2022/06/26 06:22:40;;;;;;;11.98;9.90;;;614.40;2432.00;;;;;;5083115;28;20021;-83
2022/06/26 06:25:07;;;;;;;19.55;12.27;;;614.50;2432.00;;;;;;5083239;28;20473;-82
2022/06/26 06:27:34;;;;;;;16.58;10.55;;;589.70;2432.00;;;;;;5085403;28;20024;-80
2022/06/26 06:29:59;;;;;;;17.83;10.70;;;614.60;2432.00;;;;;;5083764;28;20035;-84
2022/06/26 06:32:25;;;;;;;14.95;9.88;;;614.70;2432.00;;;;;;5083757;28;20024;-82
2022/06/26 06:34:51;;;;;;;14.68;9.75;;;614.80;2432.00;;;;;;5084390;28;20398;-81
2022/06/26 06:37:17;;;;;;;14.98;9.65;;;615.30;2432.00;;;;;;5078997;28;20027;-79
2022/06/26 06:39:43;;;;;;;14.63;8.52;;;615.00;2432.00;;;;;;5093227;28;20432;-79
2022/06/26 06:42:09;;;;;;;16.00;9.50;;;615.00;2432.00;;;;;;5093526;28;20028;-78
2022/06/26 06:44:35;;;;;;;14.45;9.18;;;615.10;2432.00;;;;;;5093143;28;20044;-79
2022/06/26 06:47:01;;;;;;;16.15;9.15;;;615.20;2432.00;;;;;;5094572;28;20024;-82
2022/06/26 06:49:27;;;;;;;13.70;8.95;;;615.20;2432.00;;;;;;5094301;28;20500;-88
2022/06/26 06:51:53;;;;;;;13.90;9.45;;;615.30;2432.00;;;;;;5093088;28;20035;-80
2022/06/26 06:54:20;;;;;;;18.80;10.18;;;640.00;2432.00;;;;;;5092540;28;20370;-81
2022/06/26 06:56:46;;;;;;;15.48;9.07;;;640.20;2432.00;;;;;;5094203;28;20094;-79
2022/06/26 06:59:11;;;;;;;13.80;8.63;;;640.20;2432.00;;;;;;5093439;28;20025;-78
2022/06/26 07:01:37;;;;;;;13.40;8.68;;;640.30;2432.00;;;;;;5091978;28;20039;-77
2022/06/26 07:04:03;;;;;;;9.70;7.32;;;640.40;2432.00;;;;;;5091623;28;20397;-80
2022/06/26 07:06:29;;;;;;;12.10;7.78;;;640.50;2432.00;;;;;;5092172;28;20110;-79
2022/06/26 07:08:55;;;;;;;18.15;7.53;;;640.60;2432.00;;;;;;5093708;28;20505;-81
2022/06/26 07:11:20;;;;;;;15.32;7.13;;;640.70;2432.00;;;;;;5091871;28;20497;-79
2022/06/26 07:13:46;;;;;;;11.60;7.18;;;640.80;2432.00;;;;;;5091116;28;20040;-79
2022/06/26 07:16:12;;;;;;;11.43;6.80;;;640.90;2432.00;;;;;;5092147;28;20038;-79
2022/06/26 07:18:38;;;;;;;12.38;7.35;;;665.70;2432.00;;;;;;5092322;28;20377;-79
2022/06/26 07:21:04;;;;;;;12.60;6.57;;;665.70;2432.00;;;;;;5093156;28;20024;-78
2022/06/26 07:23:30;;;;;;;11.88;6.03;;;665.80;2432.00;;;;;;5093368;28;20012;-78
2022/06/26 07:25:56;;;;;;;9.80;6.63;;;665.90;2432.00;;;;;;5086652;28;20035;-78
2022/06/26 07:28:22;;;;;;;7.68;5.90;;;665.90;2432.00;;;;;;5082208;28;20118;-78
2022/06/26 07:30:48;;;;;;;11.10;5.63;;;665.80;2432.00;;;;;;5081980;28;20043;-77
2022/06/26 07:35:59;;;;;;;9.85;5.85;;;666.00;2432.00;;;;;;5082330;28;20441;-79
2022/06/26 07:38:24;;;;;;;14.70;7.05;;;666.00;2432.00;;;;;;5083276;28;20054;-80
2022/06/26 07:40:51;;;;;;;13.88;6.20;;;666.10;2432.00;;;;;;5082278;28;20024;-87
2022/06/26 07:43:17;;;;;;;9.73;6.93;;;666.10;2432.00;;;;;;5080093;28;20405;-78
2022/06/26 07:45:43;;;;;;;14.48;7.63;;;666.20;2432.00;;;;;;5091697;28;20027;-78
2022/06/26 07:48:08;;;;;;;8.93;6.40;;;666.20;2432.00;;;;;;5091640;28;20607;-80
2022/06/26 07:50:34;;;;;;;13.88;6.18;;;666.30;2432.00;;;;;;5091254;28;20043;-80
2022/06/26 07:53:00;;;;;;;15.10;6.43;;;666.20;2432.00;;;;;;5089870;28;20103;-78
2022/06/26 07:55:26;;;;;;;12.23;6.53;;;666.40;2432.00;;;;;;5079842;28;20055;-78
2022/06/26 07:57:52;;;;;;;11.95;6.97;;;666.40;2432.00;;;;;;5081922;28;20119;-85
2022/06/26 08:00:18;;;;;;;12.23;7.30;;;666.50;2432.00;;;;;;5082117;28;20497;-81
2022/06/26 08:02:44;;;;;;;12.25;7.10;;;691.20;2432.00;;;;;;5083213;28;20098;-81
2022/06/26 08:05:11;;;;;;;9.55;6.15;;;691.20;2432.00;;;;;;5080920;28;20516;-81
2022/06/26 08:07:37;;;;;;;7.80;6.05;;;691.40;2432.00;;;;;;5078838;28;20031;-84
2022/06/26 08:10:03;;;;;;;8.05;5.90;;;691.60;2432.00;;;;;;5090029;28;20034;-84
2022/06/26 08:12:29;;;;;;;8.48;6.03;;;691.80;2432.00;;;;;;5092194;28;20052;-82
2022/06/26 08:14:55;;;;;;;11.02;5.30;;;691.80;2432.00;;;;;;5091826;28;20090;-88
2022/06/26 08:17:21;;;;;;;8.25;5.15;;;691.90;2432.00;;;;;;5093159;28;20085;-90
2022/06/26 08:19:48;;;;;;;10.77;4.28;;;692.00;2432.00;;;;;;5093043;28;20466;-81
2022/06/26 08:22:14;;;;;;;6.78;3.78;;;692.10;2432.00;;;;;;5091768;28;20031;-84
2022/06/26 08:24:41;;;;;;;8.65;3.75;;;692.10;2278.40;;;;;;5091825;28;20397;-85
2022/06/26 08:27:08;;;;;;;12.85;4.00;;;692.10;2227.20;;;;;;5091110;28;20473;-80
2022/06/26 08:29:34;;;;;;;4.82;2.63;;;716.80;2329.60;;;;;;5091440;28;20063;-78
2022/06/26 08:32:00;;;;;;;9.43;3.70;;;716.90;2073.60;;;;;;5092195;28;20458;-79
2022/06/26 08:34:26;;;;;;;5.72;3.90;;;716.80;2150.40;;;;;;5091569;28;20063;-82
2022/06/26 08:36:53;;;;;;;7.95;3.50;;;716.80;2201.60;;;;;;5092651;28;20052;-84
2022/06/26 08:39:20;;;;;;;6.63;2.90;;;716.90;2150.40;;;;;;5092697;28;20023;-85
2022/06/26 08:41:46;;;;;;;11.50;3.65;;;717.00;2176.00;;;;;;5091917;28;20024;-83
2022/06/26 08:44:13;;;;;;;4.53;3.10;;;717.10;2150.40;;;;;;5091474;28;20405;-84
2022/06/26 08:46:46;;;;;;;4.57;3.17;;;717.10;2124.80;;;;;;5091785;28;20047;-81
2022/06/26 08:49:21;;;;;;;5.68;2.60;;;717.20;2048.00;;;;;;5091256;28;20387;-82
2022/06/26 08:51:48;;;;;;;4.25;2.50;;;717.20;1945.60;;;;;;5091408;28;20020;-83
2022/06/26 08:54:15;;;;;;;5.05;2.42;;;717.40;1945.60;;;;;;5092197;28;20046;-79
2022/06/26 08:56:43;;;;;;;5.03;2.33;;;717.50;1868.80;;;;;;5091046;28;20059;-83
2022/06/26 08:59:11;;;;;;;4.72;2.50;;;717.60;1868.80;;;;;;5092463;28;20039;-81
2022/06/26 09:01:38;;;;;;;4.78;2.42;;;742.50;1868.80;;;;;;5090810;28;20020;-80
2022/06/26 09:04:05;;;;;;;4.70;2.17;;;742.60;1792.00;;;;;;5077083;28;20078;-80
2022/06/26 09:06:35;;;;;;;2.38;1.92;;;742.50;1740.80;;;;;;5078296;28;20102;-81
2022/06/26 09:09:12;;;;;;;5.30;2.42;;;742.50;1715.20;;;;;;5091066;28;20028;-79
2022/06/26 09:11:39;;;;;;;4.20;2.22;;;742.60;1740.80;;;;;;5091167;28;20016;-81
2022/06/26 09:14:04;;;;;;;2.50;1.52;;;742.60;1740.80;;;;;;5091585;28;20466;-79
2022/06/26 09:16:31;;;;;;;4.63;2.00;;;742.50;1740.80;;;;;;5091042;28;20070;-79
2022/06/26 09:19:07;;;;;;;3.67;1.60;;;742.50;1715.20;;;;;;5090564;28;20032;-79
2022/06/26 09:21:33;;;;;;;4.50;1.67;;;742.60;1689.60;;;;;;5076468;28;20035;-83
2022/06/26 09:23:59;;;;;;;4.20;1.70;;;742.90;1612.80;;;;;;5090117;28;20089;-80
2022/06/26 09:26:25;;;;;;;3.08;1.80;;;743.00;1587.20;;;;;;5091995;28;20107;-80
2022/06/26 09:28:50;;;;;;;3.20;2.10;;;743.30;1587.20;;;;;;5086887;28;20016;-81
2022/06/26 09:31:22;;;;;;;3.30;2.45;;;743.10;1612.80;;;;;;5081434;28;20039;-80
2022/06/26 09:33:48;;;;;;;3.22;2.13;;;743.10;1612.80;;;;;;5090749;28;20036;-85
2022/06/26 09:36:16;;;;;;;2.75;1.90;;;743.30;1612.80;;;;;;5090878;28;20028;-82
2022/06/26 09:38:49;;;;;;;4.82;3.00;;;743.10;1612.80;;;;;;5094540;28;20030;-80
2022/06/26 09:41:16;;;;;;;4.60;2.45;;;743.10;1689.60;;;;;;5091710;28;20060;-82
2022/06/26 09:43:43;;;;;;;5.10;3.30;;;768.10;1587.20;;;;;;5082730;28;20597;-80
2022/06/26 09:46:13;;;;;;;7.57;2.95;;;768.10;1536.00;;;;;;5084116;28;20032;-82
2022/06/26 09:48:41;;;;;;;3.50;1.80;;;768.00;1536.00;;;;;;5085370;28;20032;-81
2022/06/26 09:51:09;;;;;;;3.35;1.60;;;768.40;1510.40;;;;;;5082412;28;20050;-80
2022/06/26 09:53:35;;;;;;;1.83;1.52;;;768.60;1459.20;;;;;;5083991;28;20020;-79
2022/06/26 09:56:03;;;;;;;2.70;1.75;;;768.90;1408.00;;;;;;5094645;28;20063;-81
2022/06/26 09:58:30;;;;;;;3.72;2.20;;;793.70;1433.60;;;;;;5094000;28;20026;-80
2022/06/26 10:06:31;;;;;;;4.13;1.73;;;793.60;1484.80;;;;;;5095149;28;20030;-81
2022/06/26 10:09:00;;;;;;;2.47;1.80;;;768.70;1484.80;;;;;;5087620;28;20020;-81
2022/06/26 10:11:29;;;;;;;6.05;1.83;;;768.80;1484.80;;;;;;5082984;28;20024;-81
2022/06/26 10:14:02;;;;;;;5.50;1.60;;;768.60;1459.20;;;;;;5084769;28;20024;-80
2022/06/26 10:16:42;;;;;;;4.15;2.05;;;793.80;1459.20;;;;;;5090709;28;20032;-79
2022/06/26 10:19:20;;;;;;;1.80;1.40;;;794.00;1408.00;;;;;;5093522;28;20040;-81
2022/06/26 10:21:46;;;;;;;3.30;1.88;;;793.90;1459.20;;;;;;5093914;28;20444;-82
2022/06/26 10:24:14;;;;;;;2.08;1.40;;;768.40;1433.60;;;;;;5095127;28;20028;-83
2022/06/26 10:26:52;;;;;;;3.40;1.65;;;768.60;1484.80;;;;;;5093772;28;20116;-79
2022/06/26 10:29:18;;;;;;;2.47;1.90;;;768.40;1459.20;;;;;;5093932;28;20114;-80
2022/06/26 10:31:49;;;;;;;2.13;1.65;;;768.20;1459.20;;;;;;5093666;28;20099;-84
2022/06/26 10:34:19;;;;;;;2.55;1.50;;;768.10;1510.40;;;;;;5093501;28;20569;-79
2022/06/26 10:36:57;;;;;;;3.35;1.70;;;768.10;1510.40;;;;;;5093708;28;20028;-83
2022/06/26 10:39:23;;;;;;;2.88;1.90;;;768.10;1536.00;;;;;;5093314;28;20031;-80
2022/06/26 10:44:49;;;;;;;6.03;2.25;;;743.30;1587.20;;;;;;5094034;28;20051;-78
2022/06/26 10:47:17;;;;;;;4.05;1.80;;;768.10;1561.60;;;;;;5094057;28;20024;-79
2022/06/26 10:49:53;;;;;;;2.40;1.63;;;768.80;1536.00;;;;;;5084991;28;20536;-80
2022/06/26 10:52:26;;;;;;;3.35;1.83;;;793.90;1510.40;;;;;;5082217;28;20072;-81
2022/06/26 10:54:53;;;;;;;7.40;2.00;;;794.00;1484.80;;;;;;5081639;28;20039;-79
2022/06/26 10:57:35;;;;;;;3.58;1.50;;;793.70;1459.20;;;;;;5083438;28;20547;-80
2022/06/26 11:00:06;;;;;;;5.55;3.20;;;768.60;1459.20;;;;;;5082904;28;20028;-79
2022/06/26 11:02:37;;;;;;;8.02;5.05;;;768.40;1510.40;;;;;;5075620;28;20020;-80
2022/06/26 11:05:05;;;;;;;3.00;2.13;;;768.50;1459.20;;;;;;5092918;28;20031;-79
2022/06/26 11:07:50;;;;;;;4.55;3.15;;;793.70;1484.80;;;;;;5092156;28;20050;-80
2022/06/26 11:10:23;;;;;;;2.95;2.15;;;794.20;1459.20;;;;;;5092752;28;20024;-80
2022/06/26 11:12:51;;;;;;;4.38;1.83;;;794.20;1433.60;;;;;;5092122;28;20036;-79
2022/06/26 11:15:33;;;;;;;13.95;9.30;;;793.80;1510.40;;;;;;5092492;28;20036;-80
2022/06/26 11:18:02;;;;;;;5.70;2.85;;;793.70;1484.80;;;;;;5092355;28;20031;-79
2022/06/26 11:20:47;;;;;;;4.20;3.10;;;794.30;1484.80;;;;;;5093376;28;20477;-79
2022/06/26 11:23:33;;;;;;;1.80;1.65;;;819.20;1433.60;;;;;;5091851;28;20027;-79
2022/06/26 11:26:01;;;;;;;2.17;1.77;;;794.40;1408.00;;;;;;5093123;28;20035;-79
2022/06/26 11:28:45;;;;;;;2.88;1.80;;;819.30;1408.00;;;;;;5073407;28;20074;-79
2022/06/26 11:31:18;;;;;;;3.10;1.63;;;819.20;1408.00;;;;;;5078917;28;20040;-79
2022/06/26 11:33:44;;;;;;;1.80;1.35;;;794.40;1408.00;;;;;;5081276;28;20100;-79
2022/06/26 11:36:13;;;;;;;2.53;1.50;;;819.20;1331.20;;;;;;5081396;28;20122;-79
2022/06/26 11:38:45;;;;;;;2.97;1.50;;;794.10;1382.40;;;;;;5083216;28;20430;-80
2022/06/26 11:41:12;;;;;;;3.13;1.60;;;793.80;1408.00;;;;;;5080785;28;20031;-79
2022/06/26 11:43:45;;;;;;;2.80;1.38;;;768.90;1408.00;;;;;;5081347;28;20048;-79
2022/06/26 11:46:11;;;;;;;1.95;1.45;;;768.70;1433.60;;;;;;5096001;28;20062;-79
2022/06/26 11:48:37;;;;;;;1.90;1.58;;;794.10;1408.00;;;;;;5081699;28;20044;-79
2022/06/26 11:51:03;;;;;;;1.63;1.42;;;794.30;1382.40;;;;;;5079947;28;20496;-79
2022/06/26 11:53:31;;;;;;;1.65;1.55;;;819.30;1356.80;;;;;;5082596;28;20093;-79
2022/06/26 11:56:00;;;;;;;2.65;1.52;;;819.70;1331.20;;;;;;5080144;28;20142;-78
2022/06/26 11:58:31;;;;;;;3.03;1.70;;;820.00;1305.60;;;;;;5086237;28;20031;-78
2022/06/26 12:01:06;;;;;;;5.03;1.92;;;844.90;1356.80;;;;;;5080232;28;20028;-78
2022/06/26 12:03:32;;;;;;;3.45;1.50;;;845.10;1331.20;;;;;;5081227;28;20429;-79
2022/06/26 12:05:57;;;;;;;2.13;1.50;;;845.40;1331.20;;;;;;5080542;28;20039;-79
2022/06/26 12:08:23;;;;;;;3.25;1.50;;;845.40;1254.40;;;;;;5081288;28;20032;-79
2022/06/26 12:10:53;;;;;;;1.90;1.40;;;845.50;1254.40;;;;;;5079525;28;20064;-79
2022/06/26 12:13:26;;;;;;;1.70;1.58;;;845.60;1228.80;;;;;;5081839;28;20016;-78
2022/06/26 12:15:53;;;;;;;2.92;1.90;;;845.40;1177.60;;;;;;5081065;28;20115;-79
2022/06/26 12:18:19;;;;;;;4.25;1.60;;;845.60;1228.80;;;;;;5080368;28;20016;-78
2022/06/26 12:20:49;;;;;;;2.17;1.40;;;845.60;1228.80;;;;;;5081707;28;20561;-78
2022/06/26 12:23:15;;;;;;;1.90;1.60;;;845.30;1203.20;;;;;;5081309;28;20016;-78